createdAt,value
2018-09-07T00:02:39.400Z,2.53
2018-09-07T00:11:06.727Z,2.40
2018-09-07T00:16:27.525Z,3.13
2018-09-07T00:21:48.756Z,2.70
2018-09-07T00:24:16.969Z,3.27
2018-09-07T00:29:53.508Z,2.63
2018-09-07T00:41:29.051Z,2.60
2018-09-07T00:43:57.266Z,2.57
2018-09-07T00:52:11.309Z,2.77
2018-09-07T01:00:25.762Z,2.77
2018-09-07T01:05:46.730Z,2.90
2018-09-07T01:16:33.978Z,3.13
2018-09-07T01:21:55.464Z,3.07
2018-09-07T01:24:23.715Z,2.37
2018-09-07T01:40:45.775Z,3.10
2018-09-07T01:43:13.990Z,2.63
2018-09-07T01:52:59.616Z,2.80
2018-09-07T01:55:27.886Z,2.70
2018-09-07T01:57:56.104Z,3.60
2018-09-07T02:00:34.248Z,3.20
2018-09-07T02:06:27.434Z,3.07
2018-09-07T02:08:55.641Z,2.87
2018-09-07T02:11:23.835Z,3.07
2018-09-07T02:13:52.015Z,3.83
2018-09-07T02:19:08.050Z,2.50
2018-09-07T02:21:36.290Z,3.33
2018-09-07T02:24:04.539Z,3.37
2018-09-07T02:26:33.035Z,3.37
2018-09-07T02:29:01.248Z,3.13
2018-09-07T02:31:29.549Z,2.60
2018-09-07T02:36:31.668Z,3.40
2018-09-07T02:38:59.891Z,4.10
2018-09-07T02:41:28.119Z,3.30
2018-09-07T02:46:43.813Z,3.60
2018-09-07T02:49:12.075Z,3.90
2018-09-07T02:51:40.322Z,4.80
2018-09-07T02:54:08.534Z,4.43
2018-09-07T02:56:36.822Z,3.90
2018-09-07T02:59:05.019Z,5.50
2018-09-07T03:01:33.276Z,4.53
2018-09-07T03:04:01.476Z,4.50
2018-09-07T03:09:07.828Z,3.63
2018-09-07T03:14:12.919Z,3.47
2018-09-07T03:16:41.153Z,5.20
2018-09-07T03:22:03.303Z,3.93
2018-09-07T03:24:31.531Z,4.00
2018-09-07T03:27:00.766Z,5.23
2018-09-07T03:29:38.008Z,4.60
2018-09-07T03:32:06.276Z,5.40
2018-09-07T03:34:34.428Z,5.23
2018-09-07T03:43:23.339Z,5.90
2018-09-07T03:45:51.522Z,6.20
2018-09-07T03:48:21.528Z,5.50
2018-09-07T03:50:49.759Z,6.00
2018-09-07T03:53:17.923Z,4.77
2018-09-07T03:55:46.123Z,4.57
2018-09-07T03:58:14.291Z,6.33
2018-09-07T04:00:42.518Z,6.00
2018-09-07T04:03:10.667Z,6.50
2018-09-07T04:08:40.778Z,5.30
2018-09-07T04:14:27.859Z,4.87
2018-09-07T04:16:56.088Z,6.27
2018-09-07T04:19:24.418Z,5.63
2018-09-07T04:21:52.824Z,5.63
2018-09-07T04:30:12.396Z,5.30
2018-09-07T04:32:40.608Z,5.50
2018-09-07T04:41:18.367Z,5.50
2018-09-07T04:43:47.911Z,5.67
2018-09-07T04:46:21.749Z,5.23
2018-09-07T04:49:09.813Z,5.87
2018-09-07T04:52:12.156Z,5.77
2018-09-07T04:54:40.492Z,7.43
2018-09-07T05:00:46.876Z,4.80
2018-09-07T05:03:15.082Z,5.27
2018-09-07T05:09:12.546Z,4.60
2018-09-07T05:11:40.759Z,4.83
2018-09-07T05:17:51.765Z,6.10
2018-09-07T05:20:27.219Z,6.10
2018-09-07T05:22:58.843Z,4.77
2018-09-07T05:25:27.484Z,5.50
2018-09-07T05:27:58.874Z,7.00
2018-09-07T05:30:27.133Z,6.27
2018-09-07T05:32:55.344Z,7.03
2018-09-07T05:35:23.525Z,7.07
2018-09-07T05:37:51.730Z,6.53
2018-09-07T05:40:22.831Z,7.27
2018-09-07T05:42:52.073Z,6.60
2018-09-07T05:45:20.264Z,6.77
2018-09-07T05:50:43.357Z,7.53
2018-09-07T05:53:11.539Z,7.10
2018-09-07T05:55:39.724Z,6.83
2018-09-07T06:01:00.596Z,5.00
2018-09-07T06:03:28.916Z,8.10
2018-09-07T06:09:03.140Z,5.57
2018-09-07T06:11:31.301Z,6.20
2018-09-07T06:14:04.716Z,6.00
2018-09-07T06:19:25.820Z,9.63
2018-09-07T06:21:54.004Z,8.67
2018-09-07T06:24:22.958Z,7.30
2018-09-07T06:26:51.148Z,7.33
2018-09-07T06:38:02.424Z,8.70
2018-09-07T06:40:30.637Z,6.70
2018-09-07T06:48:43.827Z,6.70
2018-09-07T06:54:05.715Z,7.53
2018-09-07T07:02:20.413Z,9.40
2018-09-07T07:04:48.577Z,9.63
2018-09-07T07:07:16.972Z,7.23
2018-09-07T07:10:04.272Z,7.80
2018-09-07T07:38:32.204Z,9.57
2018-09-07T07:41:00.463Z,8.33
2018-09-07T07:52:08.347Z,10.13
2018-09-07T07:57:43.446Z,6.50
2018-09-07T08:05:57.520Z,8.90
2018-09-07T08:08:25.735Z,8.93
2018-09-07T08:13:49.315Z,7.70
2018-09-07T08:16:17.572Z,9.43
2018-09-07T08:18:45.809Z,9.87
2018-09-07T08:21:18.789Z,7.00
2018-09-07T08:23:47.023Z,7.63
2018-09-07T08:26:15.318Z,5.87
2018-09-07T08:34:32.253Z,10.10
2018-09-07T08:39:53.448Z,7.10
2018-09-07T08:42:23.968Z,6.47
2018-09-07T08:50:42.352Z,7.03
2018-09-07T08:53:10.567Z,8.20
2018-09-07T08:55:38.824Z,7.17
2018-09-07T08:58:07.071Z,5.77
2018-09-07T09:06:27.384Z,10.87
2018-09-07T09:22:33.944Z,3.47
2018-09-07T09:25:02.135Z,4.87
2018-09-07T09:27:30.466Z,5.10
2018-09-07T09:30:02.949Z,5.33
2018-09-07T09:32:31.179Z,7.03
2018-09-07T09:34:59.391Z,4.93
2018-09-07T09:37:27.655Z,8.70
2018-09-07T09:39:56.451Z,8.27
2018-09-07T09:42:24.668Z,5.27
2018-09-07T09:44:52.859Z,6.07
2018-09-07T09:47:21.500Z,4.50
2018-09-07T09:49:49.724Z,5.37
2018-09-07T09:52:18.035Z,5.10
2018-09-07T09:54:46.286Z,4.33
2018-09-07T09:57:14.524Z,6.27
2018-09-07T09:59:42.724Z,4.63
2018-09-07T10:02:21.389Z,3.90
2018-09-07T10:04:50.466Z,7.13
2018-09-07T10:07:18.678Z,4.23
2018-09-07T10:09:46.884Z,3.00
2018-09-07T10:12:15.185Z,3.53
2018-09-07T10:14:59.429Z,3.13
2018-09-07T10:17:27.672Z,3.17
2018-09-07T10:19:55.898Z,3.50
2018-09-07T10:25:09.298Z,2.50
2018-09-07T10:27:37.526Z,2.57
2018-09-07T10:30:05.736Z,2.90
2018-09-07T10:32:33.972Z,3.17
2018-09-07T10:35:02.265Z,3.83
2018-09-07T10:40:58.316Z,4.30
2018-09-07T10:43:26.503Z,4.37
2018-09-07T10:45:54.682Z,2.30
2018-09-07T10:48:51.606Z,2.43
2018-09-07T10:51:21.157Z,3.40
2018-09-07T10:53:50.018Z,4.07
2018-09-07T10:57:01.818Z,3.60
2018-09-07T10:59:30.133Z,3.60
2018-09-07T11:01:58.210Z,2.10
2018-09-07T11:04:26.408Z,3.10
2018-09-07T11:10:07.391Z,3.23
2018-09-07T11:12:35.540Z,2.13
2018-09-07T11:15:03.727Z,1.70
2018-09-07T11:17:31.888Z,2.17
2018-09-07T11:20:37.645Z,2.63
2018-09-07T11:23:06.026Z,3.37
2018-09-07T11:25:34.218Z,3.90
2018-09-07T11:28:02.668Z,2.93
2018-09-07T11:33:15.328Z,2.90
2018-09-07T11:35:43.489Z,2.50
2018-09-07T11:41:07.499Z,2.10
2018-09-07T11:43:36.580Z,2.27
2018-09-07T11:46:11.536Z,2.03
2018-09-07T11:48:39.708Z,2.10
2018-09-07T11:51:08.097Z,3.13
2018-09-07T11:53:36.620Z,2.57
2018-09-07T11:56:07.763Z,2.17
2018-09-07T11:58:37.060Z,2.30
2018-09-07T12:01:05.286Z,3.77
2018-09-07T12:06:53.437Z,2.83
2018-09-07T12:09:21.701Z,3.03
2018-09-07T12:11:49.919Z,2.83
2018-09-07T12:14:18.177Z,1.90
2018-09-07T12:17:36.764Z,3.60
2018-09-07T12:20:05.799Z,3.60
2018-09-07T12:22:34.242Z,2.30
2018-09-07T12:25:03.182Z,2.20
2018-09-07T12:27:31.456Z,2.90
2018-09-07T12:29:59.646Z,2.27
2018-09-07T12:35:28.204Z,4.00
2018-09-07T12:37:58.014Z,2.93
2018-09-07T12:41:18.487Z,2.87
2018-09-07T12:43:47.040Z,2.27
2018-09-07T12:46:45.090Z,3.80
2018-09-07T12:49:13.254Z,2.40
2018-09-07T12:51:44.487Z,2.07
2018-09-07T12:54:18.275Z,2.70
2018-09-07T12:57:05.286Z,2.20
2018-09-07T12:59:33.488Z,1.80
2018-09-07T13:02:01.683Z,2.20
2018-09-07T13:04:29.866Z,2.27
2018-09-07T13:09:39.020Z,3.70
2018-09-07T13:21:03.736Z,3.20
2018-09-07T13:23:31.934Z,2.43
2018-09-07T13:26:00.120Z,2.37
2018-09-07T13:28:28.290Z,3.03
2018-09-07T13:36:28.313Z,2.67
2018-09-07T13:38:56.471Z,2.50
2018-09-07T13:41:24.731Z,2.47
2018-09-07T13:46:34.832Z,2.20
2018-09-07T13:49:03.192Z,2.47
2018-09-07T14:02:26.709Z,2.37
2018-09-07T14:04:54.900Z,2.70
2018-09-07T14:07:33.173Z,2.70
2018-09-07T14:10:01.692Z,1.97
2018-09-07T14:12:29.860Z,2.33
2018-09-07T14:14:58.010Z,2.40
2018-09-07T14:17:26.202Z,2.60
2018-09-07T14:19:54.366Z,2.63
2018-09-07T14:22:22.538Z,2.70
2018-09-07T14:24:50.695Z,2.17
2018-09-07T14:27:44.646Z,1.30
2018-09-07T14:30:12.803Z,1.70
2018-09-07T14:32:41.077Z,1.47
2018-09-07T14:35:09.280Z,3.10
2018-09-07T14:43:51.589Z,2.30
2018-09-07T14:48:58.047Z,3.00
2018-09-07T14:51:26.285Z,3.30
2018-09-07T15:04:21.302Z,2.63
2018-09-07T15:06:49.561Z,2.70
2018-09-07T15:12:46.547Z,3.37
2018-09-07T15:15:14.754Z,4.40
2018-09-07T15:17:42.990Z,4.03
2018-09-07T15:20:11.236Z,3.20
2018-09-07T15:22:39.470Z,2.50
2018-09-07T15:25:07.685Z,2.43
2018-09-07T15:33:51.160Z,3.70
2018-09-07T15:36:19.367Z,3.90
2018-09-07T15:55:47.000Z,3.17
2018-09-07T16:01:49.032Z,4.10
2018-09-07T16:13:24.243Z,3.23
2018-09-07T16:16:09.347Z,2.50
2018-09-07T16:21:30.095Z,1.80
2018-09-07T16:26:51.443Z,1.13
2018-09-07T16:29:19.674Z,1.50
2018-09-07T16:37:33.137Z,1.60
2018-09-07T16:40:01.352Z,1.33
2018-09-07T16:45:36.320Z,1.50
2018-09-07T16:48:04.512Z,1.40
2018-09-07T16:53:55.866Z,1.70
2018-09-07T16:59:16.972Z,1.57
2018-09-07T17:01:45.137Z,1.60
2018-09-07T17:13:41.168Z,1.60
2018-09-07T17:16:09.341Z,1.40
2018-09-07T17:18:37.592Z,1.43
2018-09-07T17:21:31.283Z,1.47
2018-09-07T17:23:59.511Z,1.30
2018-09-07T17:35:43.800Z,1.80
2018-09-07T17:38:12.108Z,1.67
2018-09-07T17:46:30.268Z,1.70
2018-09-07T17:51:52.703Z,1.77
2018-09-07T17:54:20.928Z,2.23
2018-09-07T17:56:50.272Z,1.80
2018-09-07T18:07:56.899Z,1.67
2018-09-07T18:10:30.298Z,1.60
2018-09-07T18:19:41.227Z,1.53
2018-09-07T18:25:07.127Z,2.00
2018-09-07T18:27:41.305Z,2.43
2018-09-07T18:30:29.032Z,1.77
2018-09-07T18:32:57.250Z,1.93
2018-09-07T18:35:25.626Z,1.83
2018-09-07T18:44:34.332Z,2.10
2018-09-07T18:49:55.149Z,1.77
2018-09-07T18:52:23.351Z,1.90
2018-09-07T19:00:42.668Z,1.70
2018-09-07T19:06:03.971Z,1.60
2018-09-07T19:14:25.962Z,1.90
2018-09-07T19:19:54.617Z,1.63
2018-09-07T19:22:30.795Z,1.77
2018-09-07T19:24:59.727Z,1.50
2018-09-07T19:31:35.487Z,1.80
2018-09-07T19:34:03.707Z,1.97
2018-09-07T19:39:30.012Z,1.30
2018-09-07T19:42:05.078Z,1.50
2018-09-07T19:47:45.204Z,1.80
2018-09-07T19:50:35.375Z,1.80
2018-09-07T19:59:07.380Z,1.50
2018-09-07T20:01:36.553Z,1.63
2018-09-07T20:07:34.116Z,1.17
2018-09-07T20:10:04.947Z,1.50
2018-09-07T20:13:23.992Z,1.30
2018-09-07T20:15:56.007Z,1.40
2018-09-07T20:19:51.716Z,1.33
2018-09-07T20:25:34.753Z,1.53
2018-09-07T20:31:17.716Z,1.10
2018-09-07T20:39:45.697Z,1.47
2018-09-07T20:57:47.277Z,1.37
2018-09-07T21:03:08.373Z,1.30
2018-09-07T21:05:36.867Z,1.30
2018-09-07T21:08:05.180Z,1.20
2018-09-07T21:24:53.520Z,1.10
2018-09-07T21:27:21.885Z,1.20
2018-09-07T21:29:50.328Z,1.10
2018-09-07T21:32:18.556Z,1.17
2018-09-07T21:40:56.367Z,1.30
2018-09-07T21:43:24.608Z,1.20
2018-09-07T21:45:53.003Z,1.40
2018-09-07T21:48:21.285Z,1.37
2018-09-07T21:54:31.179Z,1.37
2018-09-07T22:00:00.421Z,1.40
2018-09-07T22:02:29.475Z,1.17
2018-09-07T22:04:59.822Z,1.60
2018-09-07T22:07:33.359Z,1.80
2018-09-07T22:12:49.506Z,1.13
2018-09-07T22:15:24.219Z,1.33
2018-09-07T22:17:52.432Z,1.60
2018-09-07T22:20:20.611Z,1.07
2018-09-07T22:22:55.459Z,1.23
2018-09-07T22:25:25.977Z,1.57
2018-09-07T22:27:54.180Z,1.33
2018-09-07T22:30:22.378Z,1.40
2018-09-07T22:32:50.564Z,1.33
2018-09-07T22:35:18.723Z,1.40
2018-09-07T22:37:46.928Z,1.50
2018-09-07T22:40:15.247Z,1.23
2018-09-07T22:42:43.447Z,1.10
2018-09-07T22:45:11.603Z,1.30
2018-09-07T22:47:39.840Z,0.90
2018-09-07T22:50:12.708Z,1.40
2018-09-07T22:56:29.496Z,1.30
2018-09-07T22:58:57.674Z,1.27
2018-09-07T23:01:26.945Z,1.60
2018-09-07T23:03:55.265Z,1.10
2018-09-07T23:06:28.967Z,1.30
2018-09-07T23:08:57.174Z,1.00
2018-09-07T23:11:25.359Z,1.10
2018-09-07T23:13:53.557Z,0.90
2018-09-07T23:16:21.743Z,1.10
2018-09-07T23:18:49.936Z,1.10
2018-09-07T23:29:49.771Z,1.23
2018-09-07T23:32:18.919Z,1.03
2018-09-07T23:44:22.995Z,1.10
2018-09-07T23:46:51.155Z,1.30
2018-09-07T23:49:19.332Z,1.60
2018-09-07T23:51:47.492Z,1.00
2018-09-07T23:54:15.663Z,1.10
2018-09-07T23:57:28.316Z,1.30
2018-09-07T23:59:56.702Z,1.20
